CheckWX is a tool to help pilots better visualize weather data.  It is not intended as a substitute for an official pre-flight weather briefing.

04:24:28 UTC

EBAW METAR
Antwerp International (Deurne) Airport
Antwerp, Belgium
Current

34 mins ago

EBAW 270350Z AUTO 05008KT 9999 // OVC011/// 15/13 Q1028
Observed
Jun-27 @ 03:50 UTC
Wind
  • 050° at 8 KTS
Visibility
10,000+ meters
Flight Rules
MVFR
Cloud Levels
  • Overcast at 1,100' AGL
Temperature
15°C / 59°F
Dewpoint
13°C / 55°F
Humidity
88%
Altimeter
30.35" Hg
Pressure
1027.92 hPa
Previous

1 hour ago

EBAW 270320Z AUTO 05007KT 9999 // BKN011/// 15/13 Q1028
Observed
Jun-27 @ 03:20 UTC
Wind
  • 050° at 7 KTS
Visibility
10,000+ meters
Flight Rules
MVFR
Cloud Levels
  • Broken at 1,100' AGL
Temperature
15°C / 59°F
Dewpoint
13°C / 55°F
Humidity
88%
Altimeter
30.35" Hg
Pressure
1027.92 hPa
Previous

2 hours ago

EBAW 270250Z AUTO 05007KT 020V080 9999 // FEW012/// 15/13 Q1028
Observed
Jun-27 @ 02:50 UTC
Wind
  • 050° at 7 KTS
Visibility
10,000+ meters
Flight Rules
VFR
Cloud Levels
  • Few at 1,200' AGL
Temperature
15°C / 59°F
Dewpoint
13°C / 55°F
Humidity
88%
Altimeter
30.35" Hg
Pressure
1027.92 hPa